createdAt,value
2022-12-19T00:01:32.203Z,-2.90
2022-12-19T00:04:00.372Z,-2.90
2022-12-19T00:06:28.373Z,-3.00
2022-12-19T00:08:55.927Z,-3.00
2022-12-19T00:11:23.638Z,-3.00
2022-12-19T00:13:50.494Z,-3.00
2022-12-19T00:16:19.015Z,-2.90
2022-12-19T00:18:46.601Z,-2.90
2022-12-19T00:21:14.403Z,-2.90
2022-12-19T00:23:41.088Z,-2.90
2022-12-19T00:26:07.930Z,-2.80
2022-12-19T00:28:34.691Z,-2.80
2022-12-19T00:31:03.321Z,-2.70
2022-12-19T00:33:30.456Z,-2.70
2022-12-19T00:36:00.361Z,-2.70
2022-12-19T00:38:27.573Z,-2.70
2022-12-19T00:40:54.708Z,-2.70
2022-12-19T00:43:21.981Z,-2.60
2022-12-19T00:45:48.816Z,-2.50
2022-12-19T00:48:15.620Z,-2.50
2022-12-19T00:50:45.945Z,-2.50
2022-12-19T00:53:13.781Z,-2.50
2022-12-19T00:55:40.468Z,-2.50
2022-12-19T00:58:07.153Z,-2.60
2022-12-19T01:00:33.928Z,-2.60
2022-12-19T01:03:00.707Z,-2.70
2022-12-19T01:05:29.565Z,-2.80
2022-12-19T01:07:57.327Z,-2.80
2022-12-19T01:10:23.986Z,-2.90
2022-12-19T01:12:50.802Z,-2.90
2022-12-19T01:15:20.419Z,-2.90
2022-12-19T01:17:47.678Z,-2.90
2022-12-19T01:20:24.336Z,-2.80
2022-12-19T01:22:57.376Z,-2.90
2022-12-19T01:25:27.039Z,-2.80
2022-12-19T01:27:57.004Z,-2.80
2022-12-19T01:30:23.758Z,-2.80
2022-12-19T01:32:51.328Z,-2.70
2022-12-19T01:35:21.729Z,-2.70
2022-12-19T01:37:49.770Z,-2.70
2022-12-19T01:40:16.489Z,-2.60
2022-12-19T01:42:43.182Z,-2.50
2022-12-19T01:45:13.551Z,-2.50
2022-12-19T01:47:52.533Z,-2.40
2022-12-19T01:50:33.382Z,-2.40
2022-12-19T01:53:00.453Z,-2.30
2022-12-19T01:55:27.482Z,-2.30
2022-12-19T01:57:55.430Z,-2.20
2022-12-19T02:00:22.248Z,-2.20
2022-12-19T02:02:53.831Z,-2.20
2022-12-19T02:05:40.835Z,-2.20
2022-12-19T02:08:08.746Z,-2.10
2022-12-19T02:10:35.494Z,-2.10
2022-12-19T02:13:02.404Z,-2.10
2022-12-19T02:15:33.009Z,-2.10
2022-12-19T02:17:59.893Z,-2.20
2022-12-19T02:20:36.071Z,-2.10
2022-12-19T02:23:21.640Z,-2.20
2022-12-19T02:26:07.328Z,-2.20
2022-12-19T02:28:55.960Z,-2.20
2022-12-19T02:31:26.223Z,-2.10
2022-12-19T02:33:57.973Z,-2.10
2022-12-19T02:36:27.372Z,-2.10
2022-12-19T02:38:58.645Z,-2.10
2022-12-19T02:41:43.242Z,-2.10
2022-12-19T02:44:19.271Z,-2.10
2022-12-19T02:46:46.555Z,-2.10
2022-12-19T02:49:19.750Z,-2.10
2022-12-19T02:51:58.097Z,-2.10
2022-12-19T02:54:25.353Z,-2.00
2022-12-19T02:56:58.845Z,-2.00
2022-12-19T02:59:40.227Z,-2.00
2022-12-19T03:02:27.074Z,-2.00
2022-12-19T03:05:03.275Z,-2.00
2022-12-19T03:07:33.216Z,-2.00
2022-12-19T03:10:06.742Z,-2.00
2022-12-19T03:12:39.394Z,-1.90
2022-12-19T03:15:06.526Z,-1.90
2022-12-19T03:17:37.740Z,-1.90
2022-12-19T03:20:08.257Z,-1.90
2022-12-19T03:22:35.112Z,-1.90
2022-12-19T03:25:02.039Z,-1.80
2022-12-19T03:27:30.824Z,-1.80
2022-12-19T03:30:02.476Z,-1.80
2022-12-19T03:32:31.186Z,-1.70
2022-12-19T03:35:09.280Z,-1.70
2022-12-19T03:37:37.279Z,-1.70
2022-12-19T03:40:08.799Z,-1.60
2022-12-19T03:42:56.312Z,-1.50
2022-12-19T03:45:29.243Z,-1.50
2022-12-19T03:48:01.113Z,-1.40
2022-12-19T03:50:31.198Z,-1.40
2022-12-19T03:53:11.982Z,-1.30
2022-12-19T03:55:41.088Z,-1.30
2022-12-19T03:58:10.329Z,-1.20
2022-12-19T04:00:41.278Z,-1.20
2022-12-19T04:03:08.834Z,-1.10
2022-12-19T04:05:37.045Z,-1.10
2022-12-19T04:08:05.779Z,-1.10
2022-12-19T04:10:34.581Z,-1.00
2022-12-19T04:13:03.846Z,-1.00
2022-12-19T04:15:52.236Z,-1.00
2022-12-19T04:18:19.805Z,-1.00
2022-12-19T04:20:50.981Z,-1.00
2022-12-19T04:23:21.370Z,-1.00
2022-12-19T04:25:50.454Z,-1.00
2022-12-19T04:28:20.280Z,-1.00
2022-12-19T04:30:47.819Z,-1.00
2022-12-19T04:33:14.552Z,-1.00
2022-12-19T04:35:41.280Z,-1.00
2022-12-19T04:38:08.004Z,-1.00
2022-12-19T04:40:40.814Z,-1.00
2022-12-19T04:43:08.434Z,-1.00
2022-12-19T04:45:35.392Z,-1.00
2022-12-19T04:48:03.257Z,-1.00
2022-12-19T04:50:29.933Z,-1.00
2022-12-19T04:52:57.258Z,-0.90
2022-12-19T04:55:24.041Z,-0.90
2022-12-19T04:57:50.703Z,-0.90
2022-12-19T05:00:17.580Z,-0.90
2022-12-19T05:02:44.610Z,-0.90
2022-12-19T05:05:11.421Z,-0.90
2022-12-19T05:07:38.151Z,-0.90
2022-12-19T05:10:05.092Z,-0.80
2022-12-19T05:12:31.781Z,-0.80
2022-12-19T05:14:58.511Z,-0.80
2022-12-19T05:17:25.221Z,-0.80
2022-12-19T05:19:52.137Z,-0.80
2022-12-19T05:22:18.823Z,-0.80
2022-12-19T05:24:45.506Z,-0.80
2022-12-19T05:27:12.270Z,-0.80
2022-12-19T05:29:38.930Z,-0.70
2022-12-19T05:32:05.656Z,-0.70
2022-12-19T05:34:32.376Z,-0.70
2022-12-19T05:36:59.043Z,-0.60
2022-12-19T05:39:26.901Z,-0.60
2022-12-19T05:41:54.190Z,-0.60
2022-12-19T05:44:20.939Z,-0.60
2022-12-19T05:46:47.670Z,-0.60
2022-12-19T05:49:15.702Z,-0.50
2022-12-19T05:51:42.419Z,-0.50
2022-12-19T05:54:11.907Z,-0.50
2022-12-19T05:56:38.555Z,-0.50
2022-12-19T05:59:05.249Z,-0.50
2022-12-19T06:01:32.411Z,-0.40
2022-12-19T06:03:59.168Z,-0.40
2022-12-19T06:06:26.496Z,-0.30
2022-12-19T06:08:57.549Z,-0.30
2022-12-19T06:11:24.531Z,-0.20
2022-12-19T06:13:51.315Z,-0.20
2022-12-19T06:16:19.101Z,-0.10
2022-12-19T06:18:46.210Z,-0.10
2022-12-19T06:21:17.184Z,0.00
2022-12-19T06:23:44.026Z,0.00
2022-12-19T06:26:17.139Z,0.00
2022-12-19T06:28:45.946Z,0.10
2022-12-19T06:31:13.312Z,0.10
2022-12-19T06:33:40.350Z,0.10
2022-12-19T06:36:08.561Z,0.10
2022-12-19T06:38:35.224Z,0.10
2022-12-19T06:41:21.828Z,0.10
2022-12-19T06:43:53.381Z,0.10
2022-12-19T06:46:20.567Z,0.10
2022-12-19T06:48:47.374Z,0.10
2022-12-19T06:51:14.086Z,0.20
2022-12-19T06:53:40.744Z,0.20
2022-12-19T06:56:08.314Z,0.20
2022-12-19T06:58:35.169Z,0.30
2022-12-19T07:01:02.138Z,0.30
2022-12-19T07:03:32.252Z,0.30
2022-12-19T07:05:59.031Z,0.30
2022-12-19T07:08:25.785Z,0.30
2022-12-19T07:10:53.679Z,0.40
2022-12-19T07:13:20.435Z,0.40
2022-12-19T07:15:47.499Z,0.40
2022-12-19T07:18:14.369Z,0.40
2022-12-19T07:20:45.191Z,0.40
2022-12-19T07:23:16.441Z,0.40
2022-12-19T07:25:43.175Z,0.40
2022-12-19T07:28:09.982Z,0.40
2022-12-19T07:30:36.698Z,0.40
2022-12-19T07:33:03.504Z,0.40
2022-12-19T07:35:30.361Z,0.50
2022-12-19T07:38:03.768Z,0.40
2022-12-19T07:40:30.480Z,0.50
2022-12-19T07:43:00.778Z,0.50
2022-12-19T07:45:27.861Z,0.50
2022-12-19T07:47:54.901Z,0.50
2022-12-19T07:50:21.952Z,0.60
2022-12-19T07:52:48.573Z,0.60
2022-12-19T07:55:15.312Z,0.50
2022-12-19T07:57:42.615Z,0.60
2022-12-19T08:00:09.527Z,0.60
2022-12-19T08:02:39.353Z,0.60
2022-12-19T08:05:06.320Z,0.70
2022-12-19T08:07:32.959Z,0.70
2022-12-19T08:09:59.686Z,0.70
2022-12-19T08:12:27.046Z,0.80
2022-12-19T08:14:57.145Z,0.80
2022-12-19T08:17:24.227Z,0.80
2022-12-19T08:19:51.042Z,0.80
2022-12-19T08:22:17.751Z,0.80
2022-12-19T08:24:44.438Z,0.80
2022-12-19T08:27:11.096Z,0.80
2022-12-19T08:29:37.826Z,0.80
2022-12-19T08:32:04.621Z,0.80
2022-12-19T08:34:31.312Z,0.80
2022-12-19T08:36:57.976Z,0.90
2022-12-19T08:39:24.657Z,0.90
2022-12-19T08:41:51.344Z,0.90
2022-12-19T08:44:18.018Z,1.00
2022-12-19T08:46:50.062Z,1.00
2022-12-19T08:49:17.495Z,1.00
2022-12-19T08:51:44.321Z,1.00
2022-12-19T08:54:12.196Z,1.00
2022-12-19T08:56:43.612Z,1.10
2022-12-19T08:59:13.686Z,1.10
2022-12-19T09:01:42.716Z,1.10
2022-12-19T09:05:13.567Z,1.10
2022-12-19T09:06:56.483Z,1.10
2022-12-19T09:09:23.145Z,1.10
2022-12-19T09:11:49.797Z,1.20
2022-12-19T09:14:21.197Z,1.10
2022-12-19T09:16:48.685Z,1.10
2022-12-19T09:19:16.387Z,1.10
2022-12-19T09:21:43.367Z,1.10
2022-12-19T09:24:10.631Z,1.10
2022-12-19T09:26:39.481Z,1.10
2022-12-19T09:29:19.806Z,1.10
2022-12-19T09:31:50.627Z,1.10
2022-12-19T09:34:22.929Z,1.10
2022-12-19T09:36:51.063Z,1.10
2022-12-19T09:39:18.165Z,1.10
2022-12-19T09:42:01.461Z,1.20
2022-12-19T09:44:36.995Z,1.20
2022-12-19T09:47:33.040Z,1.20
2022-12-19T09:50:00.164Z,1.20
2022-12-19T09:52:33.402Z,1.30
2022-12-19T09:55:06.320Z,1.30
2022-12-19T09:57:39.440Z,1.40
2022-12-19T10:00:14.172Z,1.50
2022-12-19T10:02:44.218Z,1.50
2022-12-19T10:05:21.800Z,1.50
2022-12-19T10:08:10.704Z,1.60
2022-12-19T10:12:38.268Z,1.70
2022-12-19T10:13:24.127Z,1.70
2022-12-19T10:16:14.139Z,1.70
2022-12-19T10:18:56.417Z,1.80
2022-12-19T10:25:09.271Z,1.80
2022-12-19T10:28:00.452Z,1.80
2022-12-19T10:30:31.394Z,1.80
2022-12-19T10:33:03.171Z,1.80
2022-12-19T10:35:32.560Z,1.90
2022-12-19T10:38:16.686Z,1.90
2022-12-19T10:40:45.733Z,2.00
2022-12-19T10:43:30.659Z,2.10
2022-12-19T10:46:02.575Z,2.10
2022-12-19T10:48:30.755Z,2.20
2022-12-19T10:50:58.454Z,2.20
2022-12-19T10:53:29.902Z,2.20
2022-12-19T10:56:01.343Z,2.30
2022-12-19T10:58:35.325Z,2.30
2022-12-19T11:01:02.041Z,2.30
2022-12-19T11:03:28.836Z,2.30
2022-12-19T11:05:57.867Z,2.30
2022-12-19T11:08:25.412Z,2.30
2022-12-19T11:12:10.980Z,2.30
2022-12-19T11:17:01.065Z,2.40
2022-12-19T11:23:38.000Z,2.40
2022-12-19T11:29:16.169Z,2.50
2022-12-19T11:29:19.780Z,2.50
2022-12-19T11:29:34.919Z,2.50
2022-12-19T11:30:37.375Z,2.50
2022-12-19T11:34:17.624Z,2.60
2022-12-19T11:36:50.584Z,2.60
2022-12-19T11:39:40.448Z,2.60
2022-12-19T11:42:16.036Z,2.60
2022-12-19T11:45:01.638Z,2.60
2022-12-19T11:47:44.284Z,2.60
2022-12-19T11:50:10.946Z,2.50
2022-12-19T11:55:44.294Z,2.60
2022-12-19T11:58:11.607Z,2.60
2022-12-19T12:00:42.376Z,2.60
2022-12-19T12:03:21.186Z,2.60
2022-12-19T12:05:49.073Z,2.60
2022-12-19T12:10:02.676Z,2.60
2022-12-19T12:14:54.987Z,2.60
2022-12-19T12:23:14.616Z,2.70
2022-12-19T12:29:30.082Z,2.70
2022-12-19T12:31:04.353Z,2.70
2022-12-19T12:31:47.315Z,2.70
2022-12-19T12:31:58.264Z,2.70
2022-12-19T12:32:02.523Z,2.70
2022-12-19T12:35:54.023Z,2.70
2022-12-19T12:37:51.059Z,2.70
2022-12-19T12:38:23.745Z,2.70
2022-12-19T12:41:11.002Z,2.70
2022-12-19T12:43:43.993Z,2.80
2022-12-19T12:46:22.520Z,2.90
2022-12-19T12:49:01.535Z,2.90
2022-12-19T12:51:28.885Z,2.90
2022-12-19T12:54:00.336Z,2.90
2022-12-19T12:56:27.335Z,3.00
2022-12-19T12:58:54.577Z,3.00
2022-12-19T13:01:35.618Z,3.00
2022-12-19T13:04:04.496Z,3.10
2022-12-19T13:06:39.162Z,3.10
2022-12-19T13:09:08.889Z,3.10
2022-12-19T13:11:58.454Z,3.20
2022-12-19T13:14:34.309Z,3.20
2022-12-19T13:17:02.014Z,3.20
2022-12-19T13:19:30.287Z,3.30
2022-12-19T13:22:09.054Z,3.30
2022-12-19T13:24:43.760Z,3.30
2022-12-19T13:27:30.376Z,3.20
2022-12-19T13:30:00.251Z,3.20
2022-12-19T13:32:32.042Z,3.10
2022-12-19T13:36:05.184Z,3.10
2022-12-19T13:39:52.181Z,3.10
2022-12-19T13:40:43.945Z,3.10
2022-12-19T13:43:30.002Z,3.10
2022-12-19T13:45:56.779Z,3.10
2022-12-19T13:48:29.081Z,3.10
2022-12-19T13:50:57.402Z,3.10
2022-12-19T13:53:25.528Z,3.00
2022-12-19T13:55:56.156Z,3.10
2022-12-19T13:58:29.301Z,3.10
2022-12-19T14:00:58.809Z,3.20
2022-12-19T14:03:38.800Z,3.10
2022-12-19T14:06:25.969Z,3.20
2022-12-19T14:08:59.259Z,3.20
2022-12-19T14:13:48.134Z,3.20
2022-12-19T14:14:48.199Z,3.20
2022-12-19T14:17:16.598Z,3.30
2022-12-19T14:19:47.663Z,3.30
2022-12-19T14:22:24.667Z,3.30
2022-12-19T14:24:53.407Z,3.20
2022-12-19T14:28:19.655Z,3.20
2022-12-19T14:30:30.584Z,3.20
2022-12-19T14:33:43.681Z,3.10
2022-12-19T14:36:12.110Z,3.10
2022-12-19T14:39:23.967Z,3.00
2022-12-19T14:41:46.273Z,3.00
2022-12-19T14:52:08.384Z,2.90
2022-12-19T14:52:35.073Z,3.00
2022-12-19T14:53:27.757Z,2.80
2022-12-19T14:54:21.705Z,2.80
2022-12-19T14:56:16.053Z,2.80
2022-12-19T14:58:55.831Z,2.80
2022-12-19T15:01:23.536Z,2.70
2022-12-19T15:04:52.642Z,2.80
2022-12-19T15:07:07.429Z,2.70
2022-12-19T15:11:08.738Z,2.70
2022-12-19T15:14:48.708Z,2.70
2022-12-19T15:15:55.046Z,2.70
2022-12-19T15:18:27.816Z,2.60
2022-12-19T15:20:56.319Z,2.70
2022-12-19T15:23:23.455Z,2.60
2022-12-19T15:26:07.681Z,2.70
2022-12-19T15:28:46.852Z,2.70
2022-12-19T15:31:24.284Z,2.80
2022-12-19T15:34:32.361Z,2.80
2022-12-19T15:36:37.793Z,2.90
2022-12-19T15:39:04.478Z,2.90
2022-12-19T15:41:31.255Z,2.90
2022-12-19T15:44:05.881Z,2.90
2022-12-19T15:46:33.390Z,2.90
2022-12-19T15:49:00.199Z,2.90
2022-12-19T15:51:26.915Z,2.90
2022-12-19T15:53:54.885Z,2.80
2022-12-19T15:56:26.728Z,2.80
2022-12-19T15:58:54.605Z,2.80
2022-12-19T16:01:21.779Z,2.80
2022-12-19T16:03:48.972Z,2.80
2022-12-19T16:06:16.063Z,2.80
2022-12-19T16:08:42.743Z,2.80
2022-12-19T16:11:16.210Z,2.70
2022-12-19T16:13:45.050Z,2.70
2022-12-19T16:16:15.735Z,2.70
2022-12-19T16:18:44.432Z,2.70
2022-12-19T16:21:27.357Z,2.70
2022-12-19T16:23:58.115Z,2.70
2022-12-19T16:26:31.420Z,2.70
2022-12-19T16:28:58.564Z,2.70
2022-12-19T16:31:26.227Z,2.70
2022-12-19T16:33:53.663Z,2.70
2022-12-19T16:36:20.487Z,2.70
2022-12-19T16:38:47.602Z,2.60
2022-12-19T16:41:43.065Z,2.60
2022-12-19T16:44:20.755Z,2.50
2022-12-19T16:46:50.837Z,2.50
2022-12-19T16:49:22.913Z,2.40
2022-12-19T16:51:50.265Z,2.40
2022-12-19T16:54:17.399Z,2.40
2022-12-19T16:56:47.954Z,2.40
2022-12-19T16:59:16.567Z,2.30
2022-12-19T17:01:45.317Z,2.30
2022-12-19T17:04:13.384Z,2.30
2022-12-19T17:06:41.121Z,2.30
2022-12-19T17:09:08.132Z,2.30
2022-12-19T17:11:34.798Z,2.40
2022-12-19T17:14:08.356Z,2.40
2022-12-19T17:16:35.247Z,2.40
2022-12-19T17:19:02.128Z,2.40
2022-12-19T17:21:28.842Z,2.40
2022-12-19T17:23:55.617Z,2.40
2022-12-19T17:26:22.374Z,2.40
2022-12-19T17:28:49.168Z,2.40
2022-12-19T17:31:39.097Z,2.40
2022-12-19T17:34:15.925Z,2.50
2022-12-19T17:36:42.738Z,2.50
2022-12-19T17:39:17.470Z,2.50
2022-12-19T17:41:44.173Z,2.50
2022-12-19T17:44:11.635Z,2.40
2022-12-19T17:46:38.411Z,2.50
2022-12-19T17:49:05.309Z,2.50
2022-12-19T17:51:31.986Z,2.50
2022-12-19T17:53:58.658Z,2.40
2022-12-19T17:56:25.423Z,2.40
2022-12-19T17:58:52.104Z,2.40
2022-12-19T18:01:23.342Z,2.40
2022-12-19T18:03:51.252Z,2.40
2022-12-19T18:06:18.227Z,2.40
2022-12-19T18:08:44.942Z,2.40
2022-12-19T18:11:17.435Z,2.40
2022-12-19T18:13:44.191Z,2.40
2022-12-19T18:16:12.369Z,2.40
2022-12-19T18:18:39.442Z,2.40
2022-12-19T18:21:06.240Z,2.40
2022-12-19T18:23:33.011Z,2.40
2022-12-19T18:26:02.334Z,2.30
2022-12-19T18:28:30.111Z,2.30
2022-12-19T18:31:02.226Z,2.30
2022-12-19T18:33:32.950Z,2.30
2022-12-19T18:35:59.647Z,2.30
2022-12-19T18:38:26.583Z,2.30
2022-12-19T18:40:53.376Z,2.30
2022-12-19T18:43:20.116Z,2.40
2022-12-19T18:45:55.952Z,2.50
2022-12-19T18:48:25.263Z,2.50
2022-12-19T18:50:52.599Z,2.50
2022-12-19T18:53:21.873Z,2.50
2022-12-19T18:55:48.875Z,2.60
2022-12-19T18:58:15.523Z,2.60
2022-12-19T19:00:42.312Z,2.50
2022-12-19T19:03:13.838Z,2.50
2022-12-19T19:05:41.232Z,2.50
2022-12-19T19:08:27.717Z,2.50
2022-12-19T19:11:15.859Z,2.50
2022-12-19T19:13:42.760Z,2.50
2022-12-19T19:16:17.455Z,2.50
2022-12-19T19:18:45.025Z,2.60
2022-12-19T19:21:13.340Z,2.60
2022-12-19T19:23:43.133Z,2.60
2022-12-19T19:26:09.908Z,2.60
2022-12-19T19:28:39.411Z,2.50
2022-12-19T19:31:07.367Z,2.60
2022-12-19T19:33:39.691Z,2.50
2022-12-19T19:36:12.098Z,2.50
2022-12-19T19:38:40.898Z,2.60
2022-12-19T19:41:07.581Z,2.60
2022-12-19T19:43:35.503Z,2.70
2022-12-19T19:46:02.706Z,2.80
2022-12-19T19:48:29.877Z,2.90
2022-12-19T19:50:56.895Z,2.90
2022-12-19T19:53:23.791Z,3.00
2022-12-19T19:56:00.844Z,3.00
2022-12-19T19:58:28.442Z,3.10
2022-12-19T20:00:56.400Z,3.10
2022-12-19T20:03:24.120Z,3.10
2022-12-19T20:05:57.876Z,3.20
2022-12-19T20:08:24.653Z,3.30
2022-12-19T20:10:55.422Z,3.30
2022-12-19T20:13:22.076Z,3.40
2022-12-19T20:15:50.087Z,3.40
2022-12-19T20:18:17.408Z,3.50
2022-12-19T20:20:44.208Z,3.50
2022-12-19T20:23:10.979Z,3.50
2022-12-19T20:25:39.813Z,3.50
2022-12-19T20:28:06.518Z,3.50
2022-12-19T20:30:33.594Z,3.50
2022-12-19T20:33:00.311Z,3.40
2022-12-19T20:35:27.064Z,3.30
2022-12-19T20:37:53.738Z,3.20
2022-12-19T20:40:20.524Z,3.10
2022-12-19T20:42:47.189Z,3.10
2022-12-19T20:45:13.997Z,3.10
2022-12-19T20:47:40.731Z,3.10
2022-12-19T20:50:07.739Z,3.00
2022-12-19T20:52:34.563Z,3.00
2022-12-19T20:55:01.232Z,3.00
2022-12-19T20:57:29.958Z,3.00
2022-12-19T20:59:56.668Z,3.00
2022-12-19T21:02:23.495Z,3.10
2022-12-19T21:04:50.415Z,3.10
2022-12-19T21:07:17.113Z,3.20
2022-12-19T21:09:45.055Z,3.20
2022-12-19T21:12:12.299Z,3.20
2022-12-19T21:14:38.985Z,3.20
2022-12-19T21:17:05.734Z,3.30
2022-12-19T21:19:32.512Z,3.30
2022-12-19T21:21:59.374Z,3.30
2022-12-19T21:24:26.324Z,3.30
2022-12-19T21:26:57.747Z,3.40
2022-12-19T21:29:25.394Z,3.50
2022-12-19T21:31:52.214Z,3.50
2022-12-19T21:34:18.975Z,3.60
2022-12-19T21:36:45.736Z,3.70
2022-12-19T21:39:13.109Z,3.80
2022-12-19T21:41:40.066Z,3.80
2022-12-19T21:44:06.775Z,3.80
2022-12-19T21:46:33.549Z,3.90
2022-12-19T21:49:00.743Z,4.00
2022-12-19T21:51:28.235Z,4.10
2022-12-19T21:53:55.948Z,4.20
2022-12-19T21:56:27.086Z,4.30
2022-12-19T21:58:54.966Z,4.40
2022-12-19T22:01:21.905Z,4.40
2022-12-19T22:03:49.051Z,4.50
2022-12-19T22:06:22.364Z,4.40
2022-12-19T22:08:52.336Z,4.40
2022-12-19T22:11:20.001Z,4.40
2022-12-19T22:13:47.588Z,4.30
2022-12-19T22:16:14.951Z,4.30
2022-12-19T22:18:42.141Z,4.20
2022-12-19T22:21:10.983Z,4.20
2022-12-19T22:23:37.644Z,4.10
2022-12-19T22:26:05.622Z,4.10
2022-12-19T22:28:33.450Z,4.00
2022-12-19T22:31:00.487Z,3.90
2022-12-19T22:33:27.642Z,3.90
2022-12-19T22:35:54.487Z,3.80
2022-12-19T22:38:21.433Z,3.80
2022-12-19T22:40:48.170Z,3.90
2022-12-19T22:43:14.939Z,3.90
2022-12-19T22:45:41.649Z,3.80
2022-12-19T22:48:08.395Z,3.80
2022-12-19T22:50:35.078Z,3.80
2022-12-19T22:53:01.840Z,3.80
2022-12-19T22:55:28.517Z,3.80
2022-12-19T22:57:55.220Z,3.80
2022-12-19T23:00:22.255Z,3.80
2022-12-19T23:02:49.054Z,3.80
2022-12-19T23:05:15.793Z,3.80
2022-12-19T23:07:42.548Z,3.80
2022-12-19T23:10:09.408Z,3.80
2022-12-19T23:12:36.324Z,3.90
2022-12-19T23:15:03.377Z,3.90
2022-12-19T23:17:30.083Z,3.90
2022-12-19T23:19:56.748Z,4.00
2022-12-19T23:22:23.452Z,3.90
2022-12-19T23:24:50.180Z,4.00
2022-12-19T23:27:16.875Z,3.90
2022-12-19T23:29:44.190Z,3.90
2022-12-19T23:32:11.138Z,3.90
2022-12-19T23:34:37.966Z,3.90
2022-12-19T23:37:12.608Z,3.90
2022-12-19T23:39:39.673Z,3.90
2022-12-19T23:42:06.401Z,3.90
2022-12-19T23:44:33.158Z,3.90
2022-12-19T23:47:03.308Z,3.90
2022-12-19T23:49:30.921Z,3.90
2022-12-19T23:51:57.599Z,4.00
2022-12-19T23:54:24.308Z,4.00
2022-12-19T23:56:51.509Z,4.10
2022-12-19T23:59:18.199Z,4.10
